sensor_id;sensor_type;location;lat;lon;timestamp;P1;durP1;ratioP1;P2;durP2;ratioP2
20170;SDS011;10245;51.344;6.620;2024-02-26T00:00:26;2.75;;;1.98;;
20170;SDS011;10245;51.344;6.620;2024-02-26T00:02:50;5.05;;;2.60;;
20170;SDS011;10245;51.344;6.620;2024-02-26T00:05:13;5.88;;;2.78;;
20170;SDS011;10245;51.344;6.620;2024-02-26T00:07:36;2.92;;;2.20;;
20170;SDS011;10245;51.344;6.620;2024-02-26T00:10:00;2.45;;;1.70;;
20170;SDS011;10245;51.344;6.620;2024-02-26T00:12:24;2.72;;;2.05;;
20170;SDS011;10245;51.344;6.620;2024-02-26T00:14:47;2.88;;;1.85;;
20170;SDS011;10245;51.344;6.620;2024-02-26T00:17:13;3.83;;;2.10;;
20170;SDS011;10245;51.344;6.620;2024-02-26T00:19:36;2.67;;;1.80;;
20170;SDS011;10245;51.344;6.620;2024-02-26T00:21:59;2.97;;;1.80;;
20170;SDS011;10245;51.344;6.620;2024-02-26T00:24:24;2.85;;;1.75;;
20170;SDS011;10245;51.344;6.620;2024-02-26T00:26:48;2.35;;;1.67;;
20170;SDS011;10245;51.344;6.620;2024-02-26T00:29:15;3.63;;;2.10;;
20170;SDS011;10245;51.344;6.620;2024-02-26T00:31:38;5.10;;;1.77;;
20170;SDS011;10245;51.344;6.620;2024-02-26T00:34:03;3.38;;;1.90;;
20170;SDS011;10245;51.344;6.620;2024-02-26T00:36:26;6.32;;;2.08;;
20170;SDS011;10245;51.344;6.620;2024-02-26T00:38:49;3.45;;;1.70;;
20170;SDS011;10245;51.344;6.620;2024-02-26T00:41:13;3.40;;;2.10;;
20170;SDS011;10245;51.344;6.620;2024-02-26T00:43:36;6.35;;;2.13;;
20170;SDS011;10245;51.344;6.620;2024-02-26T00:46:00;3.97;;;2.00;;
20170;SDS011;10245;51.344;6.620;2024-02-26T00:48:25;3.70;;;2.10;;
20170;SDS011;10245;51.344;6.620;2024-02-26T00:50:50;3.38;;;2.35;;
20170;SDS011;10245;51.344;6.620;2024-02-26T00:53:13;2.88;;;1.50;;
20170;SDS011;10245;51.344;6.620;2024-02-26T00:55:37;3.80;;;1.80;;
20170;SDS011;10245;51.344;6.620;2024-02-26T00:58:00;1.83;;;1.70;;
20170;SDS011;10245;51.344;6.620;2024-02-26T01:00:24;2.15;;;1.50;;
20170;SDS011;10245;51.344;6.620;2024-02-26T01:02:47;2.00;;;1.60;;
20170;SDS011;10245;51.344;6.620;2024-02-26T01:05:10;2.95;;;1.73;;
20170;SDS011;10245;51.344;6.620;2024-02-26T01:07:35;2.03;;;1.52;;
20170;SDS011;10245;51.344;6.620;2024-02-26T01:09:59;4.07;;;1.70;;
20170;SDS011;10245;51.344;6.620;2024-02-26T01:12:22;2.33;;;1.50;;
20170;SDS011;10245;51.344;6.620;2024-02-26T01:14:45;2.70;;;1.60;;
20170;SDS011;10245;51.344;6.620;2024-02-26T01:17:09;3.80;;;1.70;;
20170;SDS011;10245;51.344;6.620;2024-02-26T01:19:32;2.92;;;1.90;;
20170;SDS011;10245;51.344;6.620;2024-02-26T01:21:55;1.73;;;1.40;;
20170;SDS011;10245;51.344;6.620;2024-02-26T01:24:20;1.73;;;1.60;;
20170;SDS011;10245;51.344;6.620;2024-02-26T01:26:44;1.75;;;1.38;;
20170;SDS011;10245;51.344;6.620;2024-02-26T01:29:07;3.22;;;1.60;;
20170;SDS011;10245;51.344;6.620;2024-02-26T01:31:31;3.28;;;1.83;;
20170;SDS011;10245;51.344;6.620;2024-02-26T01:33:54;2.25;;;1.65;;
20170;SDS011;10245;51.344;6.620;2024-02-26T01:36:18;1.73;;;1.40;;
20170;SDS011;10245;51.344;6.620;2024-02-26T01:38:42;2.00;;;1.48;;
20170;SDS011;10245;51.344;6.620;2024-02-26T01:41:07;3.10;;;1.70;;
20170;SDS011;10245;51.344;6.620;2024-02-26T01:43:30;2.83;;;1.60;;
20170;SDS011;10245;51.344;6.620;2024-02-26T01:45:54;2.08;;;1.48;;
20170;SDS011;10245;51.344;6.620;2024-02-26T01:48:17;1.95;;;1.27;;
20170;SDS011;10245;51.344;6.620;2024-02-26T01:50:41;2.17;;;1.50;;
20170;SDS011;10245;51.344;6.620;2024-02-26T01:53:04;2.53;;;1.30;;
20170;SDS011;10245;51.344;6.620;2024-02-26T01:55:29;2.28;;;1.50;;
20170;SDS011;10245;51.344;6.620;2024-02-26T01:57:54;1.73;;;1.50;;
20170;SDS011;10245;51.344;6.620;2024-02-26T02:00:17;2.42;;;1.42;;
20170;SDS011;10245;51.344;6.620;2024-02-26T02:02:42;2.95;;;1.92;;
20170;SDS011;10245;51.344;6.620;2024-02-26T02:05:08;4.85;;;1.83;;
20170;SDS011;10245;51.344;6.620;2024-02-26T02:07:32;2.42;;;1.92;;
20170;SDS011;10245;51.344;6.620;2024-02-26T02:09:56;2.13;;;1.55;;
20170;SDS011;10245;51.344;6.620;2024-02-26T02:12:20;4.18;;;1.80;;
20170;SDS011;10245;51.344;6.620;2024-02-26T02:14:46;1.95;;;1.55;;
20170;SDS011;10245;51.344;6.620;2024-02-26T02:17:09;5.03;;;2.00;;
20170;SDS011;10245;51.344;6.620;2024-02-26T02:19:33;4.20;;;2.33;;
20170;SDS011;10245;51.344;6.620;2024-02-26T02:21:57;5.18;;;2.58;;
20170;SDS011;10245;51.344;6.620;2024-02-26T02:24:21;3.25;;;2.25;;
20170;SDS011;10245;51.344;6.620;2024-02-26T02:26:44;6.85;;;2.35;;
20170;SDS011;10245;51.344;6.620;2024-02-26T02:29:08;3.60;;;2.22;;
20170;SDS011;10245;51.344;6.620;2024-02-26T02:31:32;3.47;;;2.10;;
20170;SDS011;10245;51.344;6.620;2024-02-26T02:33:56;7.07;;;2.47;;
20170;SDS011;10245;51.344;6.620;2024-02-26T02:36:20;3.63;;;2.22;;
20170;SDS011;10245;51.344;6.620;2024-02-26T02:38:49;4.38;;;2.10;;
20170;SDS011;10245;51.344;6.620;2024-02-26T02:41:13;4.47;;;2.00;;
20170;SDS011;10245;51.344;6.620;2024-02-26T02:43:37;3.28;;;1.90;;
20170;SDS011;10245;51.344;6.620;2024-02-26T02:46:00;3.53;;;1.90;;
20170;SDS011;10245;51.344;6.620;2024-02-26T02:48:24;5.50;;;2.40;;
20170;SDS011;10245;51.344;6.620;2024-02-26T02:50:48;3.35;;;2.22;;
20170;SDS011;10245;51.344;6.620;2024-02-26T02:53:11;4.47;;;2.22;;
20170;SDS011;10245;51.344;6.620;2024-02-26T02:55:36;5.15;;;2.42;;
20170;SDS011;10245;51.344;6.620;2024-02-26T02:57:59;6.03;;;3.03;;
20170;SDS011;10245;51.344;6.620;2024-02-26T03:00:23;4.95;;;3.20;;
20170;SDS011;10245;51.344;6.620;2024-02-26T03:02:47;3.80;;;2.58;;
20170;SDS011;10245;51.344;6.620;2024-02-26T03:05:10;9.80;;;4.50;;
20170;SDS011;10245;51.344;6.620;2024-02-26T03:07:34;7.70;;;4.43;;
20170;SDS011;10245;51.344;6.620;2024-02-26T03:09:57;8.55;;;4.60;;
20170;SDS011;10245;51.344;6.620;2024-02-26T03:12:22;7.22;;;4.20;;
20170;SDS011;10245;51.344;6.620;2024-02-26T03:14:46;8.15;;;4.72;;
20170;SDS011;10245;51.344;6.620;2024-02-26T03:17:09;5.00;;;3.42;;
20170;SDS011;10245;51.344;6.620;2024-02-26T03:19:32;4.75;;;3.03;;
20170;SDS011;10245;51.344;6.620;2024-02-26T03:21:56;6.57;;;2.80;;
20170;SDS011;10245;51.344;6.620;2024-02-26T03:24:20;3.05;;;1.80;;
20170;SDS011;10245;51.344;6.620;2024-02-26T03:26:43;2.72;;;1.85;;
20170;SDS011;10245;51.344;6.620;2024-02-26T03:29:08;1.77;;;1.40;;
20170;SDS011;10245;51.344;6.620;2024-02-26T03:31:31;2.40;;;1.60;;
20170;SDS011;10245;51.344;6.620;2024-02-26T03:33:55;2.13;;;1.60;;
20170;SDS011;10245;51.344;6.620;2024-02-26T03:36:18;2.42;;;1.75;;
20170;SDS011;10245;51.344;6.620;2024-02-26T03:38:43;2.00;;;1.60;;
20170;SDS011;10245;51.344;6.620;2024-02-26T03:41:06;3.72;;;1.70;;
20170;SDS011;10245;51.344;6.620;2024-02-26T03:43:30;4.05;;;2.10;;
20170;SDS011;10245;51.344;6.620;2024-02-26T03:45:57;3.83;;;1.95;;
20170;SDS011;10245;51.344;6.620;2024-02-26T03:48:20;3.72;;;2.22;;
20170;SDS011;10245;51.344;6.620;2024-02-26T03:50:43;2.80;;;2.05;;
20170;SDS011;10245;51.344;6.620;2024-02-26T03:53:07;2.92;;;1.85;;
20170;SDS011;10245;51.344;6.620;2024-02-26T03:55:35;3.13;;;2.17;;
20170;SDS011;10245;51.344;6.620;2024-02-26T03:57:58;2.80;;;2.00;;
20170;SDS011;10245;51.344;6.620;2024-02-26T04:00:22;1.90;;;1.70;;
20170;SDS011;10245;51.344;6.620;2024-02-26T04:02:48;3.28;;;2.10;;
20170;SDS011;10245;51.344;6.620;2024-02-26T04:05:12;2.50;;;1.92;;
20170;SDS011;10245;51.344;6.620;2024-02-26T04:07:36;3.08;;;2.28;;
20170;SDS011;10245;51.344;6.620;2024-02-26T04:09:59;2.92;;;2.20;;
20170;SDS011;10245;51.344;6.620;2024-02-26T04:12:27;3.25;;;2.33;;
20170;SDS011;10245;51.344;6.620;2024-02-26T04:14:50;4.32;;;2.17;;
20170;SDS011;10245;51.344;6.620;2024-02-26T04:17:13;2.78;;;2.20;;
20170;SDS011;10245;51.344;6.620;2024-02-26T04:19:38;3.88;;;2.30;;
20170;SDS011;10245;51.344;6.620;2024-02-26T04:22:02;3.42;;;2.13;;
20170;SDS011;10245;51.344;6.620;2024-02-26T04:24:26;3.30;;;2.13;;
20170;SDS011;10245;51.344;6.620;2024-02-26T04:26:49;4.22;;;2.00;;
20170;SDS011;10245;51.344;6.620;2024-02-26T04:29:13;2.10;;;1.90;;
20170;SDS011;10245;51.344;6.620;2024-02-26T04:31:36;4.60;;;2.40;;
20170;SDS011;10245;51.344;6.620;2024-02-26T04:34:01;4.18;;;2.50;;
20170;SDS011;10245;51.344;6.620;2024-02-26T04:36:27;4.72;;;2.35;;
20170;SDS011;10245;51.344;6.620;2024-02-26T04:38:51;3.13;;;2.47;;
20170;SDS011;10245;51.344;6.620;2024-02-26T04:41:15;3.75;;;3.00;;
20170;SDS011;10245;51.344;6.620;2024-02-26T04:43:39;4.35;;;2.53;;
20170;SDS011;10245;51.344;6.620;2024-02-26T04:46:03;5.63;;;2.58;;
20170;SDS011;10245;51.344;6.620;2024-02-26T04:48:27;3.00;;;2.60;;
20170;SDS011;10245;51.344;6.620;2024-02-26T04:50:51;4.65;;;2.65;;
20170;SDS011;10245;51.344;6.620;2024-02-26T04:53:15;4.78;;;2.83;;
20170;SDS011;10245;51.344;6.620;2024-02-26T04:55:39;5.10;;;2.97;;
20170;SDS011;10245;51.344;6.620;2024-02-26T04:58:02;3.63;;;2.50;;
20170;SDS011;10245;51.344;6.620;2024-02-26T05:00:26;3.53;;;2.55;;
20170;SDS011;10245;51.344;6.620;2024-02-26T05:02:49;3.15;;;2.50;;
20170;SDS011;10245;51.344;6.620;2024-02-26T05:05:13;3.08;;;2.30;;
20170;SDS011;10245;51.344;6.620;2024-02-26T05:07:39;4.60;;;2.42;;
20170;SDS011;10245;51.344;6.620;2024-02-26T05:10:05;4.32;;;2.40;;
20170;SDS011;10245;51.344;6.620;2024-02-26T05:12:29;4.13;;;2.80;;
20170;SDS011;10245;51.344;6.620;2024-02-26T05:14:53;3.60;;;2.58;;
20170;SDS011;10245;51.344;6.620;2024-02-26T05:17:16;3.85;;;2.50;;
20170;SDS011;10245;51.344;6.620;2024-02-26T05:19:40;4.00;;;2.67;;
20170;SDS011;10245;51.344;6.620;2024-02-26T05:22:03;3.17;;;2.30;;
20170;SDS011;10245;51.344;6.620;2024-02-26T05:24:26;3.50;;;2.70;;
20170;SDS011;10245;51.344;6.620;2024-02-26T05:26:51;4.63;;;2.70;;
20170;SDS011;10245;51.344;6.620;2024-02-26T05:29:15;3.47;;;2.40;;
20170;SDS011;10245;51.344;6.620;2024-02-26T05:31:39;4.90;;;2.60;;
20170;SDS011;10245;51.344;6.620;2024-02-26T05:34:04;4.72;;;2.92;;
20170;SDS011;10245;51.344;6.620;2024-02-26T05:36:28;4.13;;;3.05;;
20170;SDS011;10245;51.344;6.620;2024-02-26T05:38:54;4.10;;;3.13;;
20170;SDS011;10245;51.344;6.620;2024-02-26T05:41:19;5.00;;;3.00;;
20170;SDS011;10245;51.344;6.620;2024-02-26T05:43:46;4.78;;;2.95;;
20170;SDS011;10245;51.344;6.620;2024-02-26T05:46:09;5.63;;;2.80;;
20170;SDS011;10245;51.344;6.620;2024-02-26T05:48:32;4.20;;;2.88;;
20170;SDS011;10245;51.344;6.620;2024-02-26T05:50:55;7.70;;;5.70;;
20170;SDS011;10245;51.344;6.620;2024-02-26T05:53:19;4.15;;;3.72;;
20170;SDS011;10245;51.344;6.620;2024-02-26T05:55:42;5.70;;;3.33;;
20170;SDS011;10245;51.344;6.620;2024-02-26T05:58:05;4.55;;;3.30;;
20170;SDS011;10245;51.344;6.620;2024-02-26T06:00:30;5.32;;;3.50;;
20170;SDS011;10245;51.344;6.620;2024-02-26T06:02:54;5.15;;;3.13;;
20170;SDS011;10245;51.344;6.620;2024-02-26T06:05:17;7.18;;;3.20;;
20170;SDS011;10245;51.344;6.620;2024-02-26T06:07:41;7.03;;;3.65;;
20170;SDS011;10245;51.344;6.620;2024-02-26T06:10:05;8.15;;;3.92;;
20170;SDS011;10245;51.344;6.620;2024-02-26T06:12:30;6.63;;;3.72;;
20170;SDS011;10245;51.344;6.620;2024-02-26T06:14:54;4.78;;;4.00;;
20170;SDS011;10245;51.344;6.620;2024-02-26T06:17:18;6.80;;;4.80;;
20170;SDS011;10245;51.344;6.620;2024-02-26T06:19:42;9.15;;;5.68;;
20170;SDS011;10245;51.344;6.620;2024-02-26T06:22:05;8.93;;;4.57;;
20170;SDS011;10245;51.344;6.620;2024-02-26T06:24:28;5.28;;;4.10;;
20170;SDS011;10245;51.344;6.620;2024-02-26T06:26:52;6.10;;;4.32;;
20170;SDS011;10245;51.344;6.620;2024-02-26T06:29:15;6.50;;;4.50;;
20170;SDS011;10245;51.344;6.620;2024-02-26T06:31:39;5.68;;;4.30;;
20170;SDS011;10245;51.344;6.620;2024-02-26T06:34:03;4.28;;;3.60;;
20170;SDS011;10245;51.344;6.620;2024-02-26T06:36:27;7.07;;;4.25;;
20170;SDS011;10245;51.344;6.620;2024-02-26T06:38:50;4.93;;;3.70;;
20170;SDS011;10245;51.344;6.620;2024-02-26T06:41:15;4.47;;;3.60;;
20170;SDS011;10245;51.344;6.620;2024-02-26T06:43:38;5.28;;;4.03;;
20170;SDS011;10245;51.344;6.620;2024-02-26T06:46:02;5.85;;;4.40;;
20170;SDS011;10245;51.344;6.620;2024-02-26T06:48:26;7.13;;;4.22;;
20170;SDS011;10245;51.344;6.620;2024-02-26T06:50:51;4.88;;;4.00;;
20170;SDS011;10245;51.344;6.620;2024-02-26T06:53:15;6.78;;;4.32;;
20170;SDS011;10245;51.344;6.620;2024-02-26T06:55:38;7.63;;;4.80;;
20170;SDS011;10245;51.344;6.620;2024-02-26T06:58:02;8.68;;;4.57;;
20170;SDS011;10245;51.344;6.620;2024-02-26T07:00:25;5.47;;;4.43;;
20170;SDS011;10245;51.344;6.620;2024-02-26T07:02:48;6.18;;;5.10;;
20170;SDS011;10245;51.344;6.620;2024-02-26T07:05:12;7.43;;;4.88;;
20170;SDS011;10245;51.344;6.620;2024-02-26T07:07:37;6.30;;;4.63;;
20170;SDS011;10245;51.344;6.620;2024-02-26T07:10:01;7.00;;;4.45;;
20170;SDS011;10245;51.344;6.620;2024-02-26T07:12:25;8.57;;;5.32;;
20170;SDS011;10245;51.344;6.620;2024-02-26T07:14:48;6.97;;;4.78;;
20170;SDS011;10245;51.344;6.620;2024-02-26T07:17:14;8.85;;;5.20;;
20170;SDS011;10245;51.344;6.620;2024-02-26T07:19:38;6.25;;;4.97;;
20170;SDS011;10245;51.344;6.620;2024-02-26T07:22:02;8.43;;;5.30;;
20170;SDS011;10245;51.344;6.620;2024-02-26T07:24:27;5.00;;;4.28;;
20170;SDS011;10245;51.344;6.620;2024-02-26T07:26:50;6.82;;;4.40;;
20170;SDS011;10245;51.344;6.620;2024-02-26T07:29:15;5.60;;;4.63;;
20170;SDS011;10245;51.344;6.620;2024-02-26T07:31:38;6.30;;;4.20;;
20170;SDS011;10245;51.344;6.620;2024-02-26T07:34:01;6.50;;;4.70;;
20170;SDS011;10245;51.344;6.620;2024-02-26T07:36:25;5.60;;;4.07;;
20170;SDS011;10245;51.344;6.620;2024-02-26T07:38:48;7.18;;;3.90;;
20170;SDS011;10245;51.344;6.620;2024-02-26T07:41:15;5.43;;;4.18;;
20170;SDS011;10245;51.344;6.620;2024-02-26T07:43:38;6.47;;;4.85;;
20170;SDS011;10245;51.344;6.620;2024-02-26T07:46:02;5.57;;;4.50;;
20170;SDS011;10245;51.344;6.620;2024-02-26T07:48:26;6.07;;;4.40;;
20170;SDS011;10245;51.344;6.620;2024-02-26T07:50:52;6.03;;;4.15;;
20170;SDS011;10245;51.344;6.620;2024-02-26T07:53:15;7.05;;;4.45;;
20170;SDS011;10245;51.344;6.620;2024-02-26T07:55:39;5.78;;;4.47;;
20170;SDS011;10245;51.344;6.620;2024-02-26T07:58:04;7.22;;;5.05;;
20170;SDS011;10245;51.344;6.620;2024-02-26T08:00:30;9.52;;;5.15;;
20170;SDS011;10245;51.344;6.620;2024-02-26T08:02:53;7.75;;;5.00;;
20170;SDS011;10245;51.344;6.620;2024-02-26T08:05:16;7.50;;;4.65;;
20170;SDS011;10245;51.344;6.620;2024-02-26T08:07:40;6.97;;;4.57;;
20170;SDS011;10245;51.344;6.620;2024-02-26T08:10:03;8.35;;;5.30;;
20170;SDS011;10245;51.344;6.620;2024-02-26T08:12:27;6.72;;;4.85;;
20170;SDS011;10245;51.344;6.620;2024-02-26T08:14:53;8.23;;;4.85;;
20170;SDS011;10245;51.344;6.620;2024-02-26T08:17:17;7.90;;;4.88;;
20170;SDS011;10245;51.344;6.620;2024-02-26T08:19:40;7.05;;;5.05;;
20170;SDS011;10245;51.344;6.620;2024-02-26T08:22:03;10.57;;;5.97;;
20170;SDS011;10245;51.344;6.620;2024-02-26T08:24:27;13.32;;;7.85;;
20170;SDS011;10245;51.344;6.620;2024-02-26T08:26:50;10.57;;;6.65;;
20170;SDS011;10245;51.344;6.620;2024-02-26T08:29:13;7.03;;;5.47;;
20170;SDS011;10245;51.344;6.620;2024-02-26T08:31:38;7.45;;;4.95;;
20170;SDS011;10245;51.344;6.620;2024-02-26T08:34:02;8.18;;;5.15;;
20170;SDS011;10245;51.344;6.620;2024-02-26T08:36:26;7.72;;;4.82;;
20170;SDS011;10245;51.344;6.620;2024-02-26T08:38:49;8.18;;;4.70;;
20170;SDS011;10245;51.344;6.620;2024-02-26T08:41:13;8.18;;;5.25;;
20170;SDS011;10245;51.344;6.620;2024-02-26T08:43:36;5.40;;;4.40;;
20170;SDS011;10245;51.344;6.620;2024-02-26T08:45:59;7.20;;;5.13;;
20170;SDS011;10245;51.344;6.620;2024-02-26T08:48:24;10.30;;;4.63;;
20170;SDS011;10245;51.344;6.620;2024-02-26T08:50:48;6.50;;;4.55;;
20170;SDS011;10245;51.344;6.620;2024-02-26T08:53:11;6.57;;;4.20;;
20170;SDS011;10245;51.344;6.620;2024-02-26T08:55:39;6.90;;;4.10;;
20170;SDS011;10245;51.344;6.620;2024-02-26T08:58:02;6.65;;;4.35;;
20170;SDS011;10245;51.344;6.620;2024-02-26T09:00:25;6.05;;;3.85;;
20170;SDS011;10245;51.344;6.620;2024-02-26T09:02:50;8.57;;;4.30;;
20170;SDS011;10245;51.344;6.620;2024-02-26T09:05:15;5.43;;;4.38;;
20170;SDS011;10245;51.344;6.620;2024-02-26T09:07:38;8.48;;;4.78;;
20170;SDS011;10245;51.344;6.620;2024-02-26T09:10:01;5.47;;;4.13;;
20170;SDS011;10245;51.344;6.620;2024-02-26T09:12:25;6.57;;;4.30;;
20170;SDS011;10245;51.344;6.620;2024-02-26T09:14:49;5.80;;;4.40;;
20170;SDS011;10245;51.344;6.620;2024-02-26T09:17:12;5.88;;;4.18;;
20170;SDS011;10245;51.344;6.620;2024-02-26T09:19:36;10.00;;;4.50;;
20170;SDS011;10245;51.344;6.620;2024-02-26T09:22:01;6.43;;;4.30;;
20170;SDS011;10245;51.344;6.620;2024-02-26T09:24:25;6.35;;;5.00;;
20170;SDS011;10245;51.344;6.620;2024-02-26T09:26:49;6.82;;;4.82;;
20170;SDS011;10245;51.344;6.620;2024-02-26T09:29:12;8.73;;;4.53;;
20170;SDS011;10245;51.344;6.620;2024-02-26T09:31:36;7.93;;;5.28;;
20170;SDS011;10245;51.344;6.620;2024-02-26T09:34:01;6.95;;;5.38;;
20170;SDS011;10245;51.344;6.620;2024-02-26T09:36:26;5.80;;;4.80;;
20170;SDS011;10245;51.344;6.620;2024-02-26T09:38:51;7.55;;;5.05;;
20170;SDS011;10245;51.344;6.620;2024-02-26T09:41:23;6.07;;;4.65;;
20170;SDS011;10245;51.344;6.620;2024-02-26T09:43:46;7.53;;;4.25;;
20170;SDS011;10245;51.344;6.620;2024-02-26T09:46:11;5.78;;;4.72;;
20170;SDS011;10245;51.344;6.620;2024-02-26T09:48:35;6.95;;;4.35;;
20170;SDS011;10245;51.344;6.620;2024-02-26T09:51:01;7.43;;;4.60;;
20170;SDS011;10245;51.344;6.620;2024-02-26T09:53:25;7.63;;;5.30;;
20170;SDS011;10245;51.344;6.620;2024-02-26T09:55:51;6.70;;;5.47;;
20170;SDS011;10245;51.344;6.620;2024-02-26T09:58:14;7.97;;;5.35;;
20170;SDS011;10245;51.344;6.620;2024-02-26T10:00:40;8.45;;;5.47;;
20170;SDS011;10245;51.344;6.620;2024-02-26T10:03:04;8.63;;;5.95;;
20170;SDS011;10245;51.344;6.620;2024-02-26T10:05:28;8.18;;;5.10;;
20170;SDS011;10245;51.344;6.620;2024-02-26T10:07:52;6.65;;;5.10;;
20170;SDS011;10245;51.344;6.620;2024-02-26T10:10:17;9.75;;;5.07;;
20170;SDS011;10245;51.344;6.620;2024-02-26T10:12:42;6.35;;;4.90;;
20170;SDS011;10245;51.344;6.620;2024-02-26T10:15:06;6.78;;;5.20;;
20170;SDS011;10245;51.344;6.620;2024-02-26T10:17:30;9.07;;;5.85;;
20170;SDS011;10245;51.344;6.620;2024-02-26T10:19:54;8.05;;;5.97;;
20170;SDS011;10245;51.344;6.620;2024-02-26T10:22:33;6.18;;;5.40;;
20170;SDS011;10245;51.344;6.620;2024-02-26T10:24:57;9.48;;;5.80;;
20170;SDS011;10245;51.344;6.620;2024-02-26T10:27:21;9.45;;;6.00;;
20170;SDS011;10245;51.344;6.620;2024-02-26T10:29:46;10.00;;;6.55;;
20170;SDS011;10245;51.344;6.620;2024-02-26T10:32:09;10.32;;;6.63;;
20170;SDS011;10245;51.344;6.620;2024-02-26T10:34:35;6.97;;;5.57;;
20170;SDS011;10245;51.344;6.620;2024-02-26T10:37:00;6.72;;;5.60;;
20170;SDS011;10245;51.344;6.620;2024-02-26T10:39:24;8.60;;;5.82;;
20170;SDS011;10245;51.344;6.620;2024-02-26T10:41:48;9.52;;;5.80;;
20170;SDS011;10245;51.344;6.620;2024-02-26T10:44:12;10.63;;;6.20;;
20170;SDS011;10245;51.344;6.620;2024-02-26T10:46:41;7.82;;;5.30;;
20170;SDS011;10245;51.344;6.620;2024-02-26T10:49:04;6.50;;;5.22;;
20170;SDS011;10245;51.344;6.620;2024-02-26T10:51:30;10.93;;;5.80;;
20170;SDS011;10245;51.344;6.620;2024-02-26T10:53:55;6.53;;;5.47;;
20170;SDS011;10245;51.344;6.620;2024-02-26T10:56:23;8.65;;;5.28;;
20170;SDS011;10245;51.344;6.620;2024-02-26T10:58:49;9.20;;;5.95;;
20170;SDS011;10245;51.344;6.620;2024-02-26T11:01:12;9.85;;;5.78;;
20170;SDS011;10245;51.344;6.620;2024-02-26T11:03:38;7.07;;;5.75;;
20170;SDS011;10245;51.344;6.620;2024-02-26T11:06:03;7.32;;;5.90;;
20170;SDS011;10245;51.344;6.620;2024-02-26T11:08:27;9.70;;;6.32;;
20170;SDS011;10245;51.344;6.620;2024-02-26T11:10:54;7.70;;;5.95;;
20170;SDS011;10245;51.344;6.620;2024-02-26T11:13:19;10.93;;;6.25;;
20170;SDS011;10245;51.344;6.620;2024-02-26T11:15:44;7.63;;;5.97;;
20170;SDS011;10245;51.344;6.620;2024-02-26T11:18:09;9.27;;;6.82;;
20170;SDS011;10245;51.344;6.620;2024-02-26T11:20:38;10.02;;;6.80;;
20170;SDS011;10245;51.344;6.620;2024-02-26T11:23:03;8.90;;;6.80;;
20170;SDS011;10245;51.344;6.620;2024-02-26T11:25:26;10.25;;;7.22;;
20170;SDS011;10245;51.344;6.620;2024-02-26T11:27:50;7.75;;;6.25;;
20170;SDS011;10245;51.344;6.620;2024-02-26T11:30:20;9.68;;;6.78;;
20170;SDS011;10245;51.344;6.620;2024-02-26T11:32:45;9.52;;;7.15;;
20170;SDS011;10245;51.344;6.620;2024-02-26T11:35:09;9.13;;;6.35;;
20170;SDS011;10245;51.344;6.620;2024-02-26T11:37:37;11.55;;;7.28;;
20170;SDS011;10245;51.344;6.620;2024-02-26T11:40:06;9.07;;;6.63;;
20170;SDS011;10245;51.344;6.620;2024-02-26T11:42:34;10.57;;;6.97;;
20170;SDS011;10245;51.344;6.620;2024-02-26T11:45:17;10.15;;;7.72;;
20170;SDS011;10245;51.344;6.620;2024-02-26T11:48:20;10.25;;;7.18;;
20170;SDS011;10245;51.344;6.620;2024-02-26T11:50:47;9.20;;;6.85;;
20170;SDS011;10245;51.344;6.620;2024-02-26T11:53:20;10.57;;;7.57;;
20170;SDS011;10245;51.344;6.620;2024-02-26T11:55:47;12.68;;;7.38;;
20170;SDS011;10245;51.344;6.620;2024-02-26T11:58:11;12.15;;;8.38;;
20170;SDS011;10245;51.344;6.620;2024-02-26T12:00:34;10.77;;;7.40;;
20170;SDS011;10245;51.344;6.620;2024-02-26T12:02:59;12.73;;;6.63;;
20170;SDS011;10245;51.344;6.620;2024-02-26T12:05:28;7.32;;;5.45;;
20170;SDS011;10245;51.344;6.620;2024-02-26T12:07:55;7.70;;;6.03;;
20170;SDS011;10245;51.344;6.620;2024-02-26T12:10:28;6.60;;;5.85;;
20170;SDS011;10245;51.344;6.620;2024-02-26T12:13:00;9.82;;;6.18;;
20170;SDS011;10245;51.344;6.620;2024-02-26T12:15:30;7.65;;;5.72;;
20170;SDS011;10245;51.344;6.620;2024-02-26T12:17:54;7.90;;;6.35;;
20170;SDS011;10245;51.344;6.620;2024-02-26T12:20:20;9.05;;;6.57;;
20170;SDS011;10245;51.344;6.620;2024-02-26T12:22:44;9.50;;;6.38;;
20170;SDS011;10245;51.344;6.620;2024-02-26T12:25:08;13.32;;;7.40;;
20170;SDS011;10245;51.344;6.620;2024-02-26T12:27:32;12.13;;;6.38;;
20170;SDS011;10245;51.344;6.620;2024-02-26T12:29:55;10.52;;;6.50;;
20170;SDS011;10245;51.344;6.620;2024-02-26T12:32:19;9.52;;;7.00;;
20170;SDS011;10245;51.344;6.620;2024-02-26T12:34:42;9.95;;;7.13;;
20170;SDS011;10245;51.344;6.620;2024-02-26T12:37:08;10.27;;;7.15;;
20170;SDS011;10245;51.344;6.620;2024-02-26T12:39:32;10.23;;;7.10;;
20170;SDS011;10245;51.344;6.620;2024-02-26T12:41:57;10.35;;;7.07;;
20170;SDS011;10245;51.344;6.620;2024-02-26T12:44:24;11.05;;;7.40;;
20170;SDS011;10245;51.344;6.620;2024-02-26T12:46:48;10.57;;;7.28;;
20170;SDS011;10245;51.344;6.620;2024-02-26T12:49:14;11.68;;;7.63;;
20170;SDS011;10245;51.344;6.620;2024-02-26T12:51:39;11.90;;;8.10;;
20170;SDS011;10245;51.344;6.620;2024-02-26T12:54:04;18.00;;;9.35;;
20170;SDS011;10245;51.344;6.620;2024-02-26T12:56:28;14.48;;;9.38;;
20170;SDS011;10245;51.344;6.620;2024-02-26T12:58:52;17.00;;;9.35;;
20170;SDS011;10245;51.344;6.620;2024-02-26T13:01:17;16.48;;;9.55;;
20170;SDS011;10245;51.344;6.620;2024-02-26T13:03:44;14.05;;;9.90;;
20170;SDS011;10245;51.344;6.620;2024-02-26T13:06:08;14.80;;;9.35;;
20170;SDS011;10245;51.344;6.620;2024-02-26T13:08:32;12.82;;;9.60;;
20170;SDS011;10245;51.344;6.620;2024-02-26T13:10:56;15.20;;;9.80;;
20170;SDS011;10245;51.344;6.620;2024-02-26T13:13:22;16.30;;;10.98;;
20170;SDS011;10245;51.344;6.620;2024-02-26T13:15:46;14.85;;;10.60;;
20170;SDS011;10245;51.344;6.620;2024-02-26T13:18:11;13.45;;;10.32;;
20170;SDS011;10245;51.344;6.620;2024-02-26T13:20:36;13.75;;;9.52;;
20170;SDS011;10245;51.344;6.620;2024-02-26T13:23:01;13.93;;;9.77;;
20170;SDS011;10245;51.344;6.620;2024-02-26T13:25:26;13.32;;;9.23;;
20170;SDS011;10245;51.344;6.620;2024-02-26T13:27:52;14.50;;;9.60;;
20170;SDS011;10245;51.344;6.620;2024-02-26T13:30:15;12.68;;;8.75;;
20170;SDS011;10245;51.344;6.620;2024-02-26T13:32:40;12.50;;;9.85;;
20170;SDS011;10245;51.344;6.620;2024-02-26T13:35:05;13.68;;;9.65;;
20170;SDS011;10245;51.344;6.620;2024-02-26T13:37:30;13.90;;;9.20;;
20170;SDS011;10245;51.344;6.620;2024-02-26T13:39:53;12.35;;;9.57;;
20170;SDS011;10245;51.344;6.620;2024-02-26T13:42:17;12.43;;;9.07;;
20170;SDS011;10245;51.344;6.620;2024-02-26T13:44:41;13.45;;;9.43;;
20170;SDS011;10245;51.344;6.620;2024-02-26T13:47:04;14.10;;;9.90;;
20170;SDS011;10245;51.344;6.620;2024-02-26T13:49:28;12.70;;;9.55;;
20170;SDS011;10245;51.344;6.620;2024-02-26T13:51:51;12.75;;;9.52;;
20170;SDS011;10245;51.344;6.620;2024-02-26T13:54:14;15.55;;;10.15;;
20170;SDS011;10245;51.344;6.620;2024-02-26T13:56:37;13.63;;;8.93;;
20170;SDS011;10245;51.344;6.620;2024-02-26T13:59:00;11.10;;;8.18;;
20170;SDS011;10245;51.344;6.620;2024-02-26T14:01:30;11.05;;;7.85;;
20170;SDS011;10245;51.344;6.620;2024-02-26T14:03:55;10.32;;;7.72;;
20170;SDS011;10245;51.344;6.620;2024-02-26T14:06:19;13.02;;;9.10;;
20170;SDS011;10245;51.344;6.620;2024-02-26T14:08:43;10.38;;;7.80;;
20170;SDS011;10245;51.344;6.620;2024-02-26T14:11:06;8.68;;;7.43;;
20170;SDS011;10245;51.344;6.620;2024-02-26T14:13:31;8.90;;;7.50;;
20170;SDS011;10245;51.344;6.620;2024-02-26T14:15:58;10.43;;;7.28;;
20170;SDS011;10245;51.344;6.620;2024-02-26T14:18:22;9.32;;;7.82;;
20170;SDS011;10245;51.344;6.620;2024-02-26T14:20:46;9.52;;;7.88;;
20170;SDS011;10245;51.344;6.620;2024-02-26T14:23:09;12.73;;;8.25;;
20170;SDS011;10245;51.344;6.620;2024-02-26T14:25:34;11.13;;;8.15;;
20170;SDS011;10245;51.344;6.620;2024-02-26T14:27:57;8.85;;;7.10;;